sensor_id;sensor_type;location;lat;lon;timestamp;pressure;altitude;pressure_sealevel;temperature;humidity
30873;BME280;17579;42.690;2.586;2023-06-22T00:00:33;96939.75;;;23.90;70.74
30873;BME280;17579;42.690;2.586;2023-06-22T00:03:03;96941.06;;;23.87;70.26
30873;BME280;17579;42.690;2.586;2023-06-22T00:05:45;96933.03;;;23.80;70.58
30873;BME280;17579;42.690;2.586;2023-06-22T00:08:14;96934.44;;;23.83;70.54
30873;BME280;17579;42.690;2.586;2023-06-22T00:11:05;96947.16;;;23.70;70.63
30873;BME280;17579;42.690;2.586;2023-06-22T00:13:35;96947.50;;;23.74;70.62
30873;BME280;17579;42.690;2.586;2023-06-22T00:16:11;96929.88;;;23.72;70.67
30873;BME280;17579;42.690;2.586;2023-06-22T00:18:37;96926.03;;;23.67;70.47
30873;BME280;17579;42.690;2.586;2023-06-22T00:21:15;96923.22;;;23.62;70.71
30873;BME280;17579;42.690;2.586;2023-06-22T00:23:53;96930.38;;;23.68;70.64
30873;BME280;17579;42.690;2.586;2023-06-22T00:26:22;96934.47;;;23.71;70.53
30873;BME280;17579;42.690;2.586;2023-06-22T00:28:51;96935.91;;;23.74;70.79
30873;BME280;17579;42.690;2.586;2023-06-22T00:31:17;96927.78;;;23.74;71.08
30873;BME280;17579;42.690;2.586;2023-06-22T00:33:45;96935.66;;;23.75;70.78
30873;BME280;17579;42.690;2.586;2023-06-22T00:36:23;96933.75;;;23.76;70.97
30873;BME280;17579;42.690;2.586;2023-06-22T00:39:13;96931.41;;;23.79;70.47
30873;BME280;17579;42.690;2.586;2023-06-22T00:41:41;96936.59;;;23.81;70.95
30873;BME280;17579;42.690;2.586;2023-06-22T00:44:30;96944.44;;;23.82;70.41
30873;BME280;17579;42.690;2.586;2023-06-22T00:50:05;96941.97;;;23.81;70.72
30873;BME280;17579;42.690;2.586;2023-06-22T00:52:41;96939.38;;;23.86;70.43
30873;BME280;17579;42.690;2.586;2023-06-22T00:55:13;96945.50;;;23.81;70.76
30873;BME280;17579;42.690;2.586;2023-06-22T00:57:39;96951.13;;;23.80;70.45
30873;BME280;17579;42.690;2.586;2023-06-22T01:00:15;96942.78;;;23.81;70.51
30873;BME280;17579;42.690;2.586;2023-06-22T01:02:58;96942.22;;;23.79;70.68
30873;BME280;17579;42.690;2.586;2023-06-22T01:05:36;96920.50;;;23.74;70.90
30873;BME280;17579;42.690;2.586;2023-06-22T01:11:05;96919.00;;;23.66;70.79
30873;BME280;17579;42.690;2.586;2023-06-22T01:13:37;96953.72;;;23.63;70.34
30873;BME280;17579;42.690;2.586;2023-06-22T01:16:15;96966.06;;;23.59;70.88
30873;BME280;17579;42.690;2.586;2023-06-22T01:19:29;96959.63;;;23.48;71.19
30873;BME280;17579;42.690;2.586;2023-06-22T01:22:06;96944.47;;;23.47;71.08
30873;BME280;17579;42.690;2.586;2023-06-22T01:24:45;96934.38;;;23.42;71.26
30873;BME280;17579;42.690;2.586;2023-06-22T01:27:28;96920.75;;;23.37;70.89
30873;BME280;17579;42.690;2.586;2023-06-22T01:30:08;96919.03;;;23.31;70.85
30873;BME280;17579;42.690;2.586;2023-06-22T01:32:39;96929.91;;;23.24;71.25
30873;BME280;17579;42.690;2.586;2023-06-22T01:38:03;96930.28;;;23.28;71.31
30873;BME280;17579;42.690;2.586;2023-06-22T01:40:37;96943.78;;;23.28;71.33
30873;BME280;17579;42.690;2.586;2023-06-22T01:43:06;96961.38;;;23.30;71.37
30873;BME280;17579;42.690;2.586;2023-06-22T01:45:35;96976.25;;;23.33;71.55
30873;BME280;17579;42.690;2.586;2023-06-22T01:48:28;96973.94;;;23.37;71.37
30873;BME280;17579;42.690;2.586;2023-06-22T01:51:04;96971.56;;;23.40;71.02
30873;BME280;17579;42.690;2.586;2023-06-22T01:53:33;96958.31;;;23.39;71.33
30873;BME280;17579;42.690;2.586;2023-06-22T01:56:11;96956.00;;;23.30;70.59
30873;BME280;17579;42.690;2.586;2023-06-22T02:01:29;96964.31;;;23.29;70.98
30873;BME280;17579;42.690;2.586;2023-06-22T02:04:09;96961.38;;;23.30;70.70
30873;BME280;17579;42.690;2.586;2023-06-22T02:06:45;96958.06;;;23.28;71.05
30873;BME280;17579;42.690;2.586;2023-06-22T02:09:18;96961.81;;;23.27;70.81
30873;BME280;17579;42.690;2.586;2023-06-22T02:11:46;96972.41;;;23.29;70.94
30873;BME280;17579;42.690;2.586;2023-06-22T02:14:27;96980.94;;;23.26;70.57
30873;BME280;17579;42.690;2.586;2023-06-22T02:18:03;96978.25;;;23.26;70.56
30873;BME280;17579;42.690;2.586;2023-06-22T02:19:51;96985.91;;;23.29;69.91
30873;BME280;17579;42.690;2.586;2023-06-22T02:22:21;96979.31;;;23.25;70.11
30873;BME280;17579;42.690;2.586;2023-06-22T02:24:49;96976.03;;;23.23;70.22
30873;BME280;17579;42.690;2.586;2023-06-22T02:27:35;96982.94;;;23.18;70.22
30873;BME280;17579;42.690;2.586;2023-06-22T02:30:09;96993.97;;;23.17;70.43
30873;BME280;17579;42.690;2.586;2023-06-22T02:32:46;97000.50;;;23.09;70.69
30873;BME280;17579;42.690;2.586;2023-06-22T02:35:21;97012.50;;;23.13;69.98
30873;BME280;17579;42.690;2.586;2023-06-22T02:37:49;97021.03;;;23.10;70.16
30873;BME280;17579;42.690;2.586;2023-06-22T02:40:22;97018.78;;;23.07;70.09
30873;BME280;17579;42.690;2.586;2023-06-22T02:42:59;97024.16;;;23.07;70.29
30873;BME280;17579;42.690;2.586;2023-06-22T02:45:42;97021.34;;;23.02;69.98
30873;BME280;17579;42.690;2.586;2023-06-22T02:48:12;97023.81;;;23.04;69.66
30873;BME280;17579;42.690;2.586;2023-06-22T02:50:53;97036.94;;;23.00;70.00
30873;BME280;17579;42.690;2.586;2023-06-22T02:53:21;97038.22;;;22.97;70.00
30873;BME280;17579;42.690;2.586;2023-06-22T02:55:55;97042.19;;;22.95;70.28
30873;BME280;17579;42.690;2.586;2023-06-22T02:58:44;97047.13;;;22.98;70.21
30873;BME280;17579;42.690;2.586;2023-06-22T03:04:01;97048.56;;;23.00;70.37
30873;BME280;17579;42.690;2.586;2023-06-22T03:06:49;97052.44;;;23.05;70.43
30873;BME280;17579;42.690;2.586;2023-06-22T03:09:31;97047.63;;;23.07;70.89
30873;BME280;17579;42.690;2.586;2023-06-22T03:11:59;97056.34;;;23.09;70.80
30873;BME280;17579;42.690;2.586;2023-06-22T03:14:36;97067.72;;;23.11;70.63
30873;BME280;17579;42.690;2.586;2023-06-22T03:17:13;97069.81;;;23.09;70.92
30873;BME280;17579;42.690;2.586;2023-06-22T03:19:40;97087.56;;;23.16;70.53
30873;BME280;17579;42.690;2.586;2023-06-22T03:22:11;97086.75;;;23.16;70.68
30873;BME280;17579;42.690;2.586;2023-06-22T03:24:48;97079.63;;;23.22;70.48
30873;BME280;17579;42.690;2.586;2023-06-22T03:27:21;97073.16;;;23.23;70.27
30873;BME280;17579;42.690;2.586;2023-06-22T03:29:51;97071.72;;;23.20;70.29
30873;BME280;17579;42.690;2.586;2023-06-22T03:32:21;97058.72;;;23.17;70.32
30873;BME280;17579;42.690;2.586;2023-06-22T03:34:47;97056.34;;;23.09;70.49
30873;BME280;17579;42.690;2.586;2023-06-22T03:37:15;97057.00;;;23.04;70.58
30873;BME280;17579;42.690;2.586;2023-06-22T03:39:44;97054.19;;;22.99;70.83
30873;BME280;17579;42.690;2.586;2023-06-22T03:42:15;97047.13;;;22.98;71.54
30873;BME280;17579;42.690;2.586;2023-06-22T03:44:44;97062.50;;;22.97;71.48
30873;BME280;17579;42.690;2.586;2023-06-22T03:47:25;97052.75;;;22.96;71.36
30873;BME280;17579;42.690;2.586;2023-06-22T03:49:51;97060.63;;;22.98;71.42
30873;BME280;17579;42.690;2.586;2023-06-22T03:52:21;97064.81;;;22.94;71.80
30873;BME280;17579;42.690;2.586;2023-06-22T03:54:50;97070.69;;;22.91;71.84
30873;BME280;17579;42.690;2.586;2023-06-22T03:57:26;97063.41;;;22.91;71.40
30873;BME280;17579;42.690;2.586;2023-06-22T03:59:56;97055.53;;;22.90;71.67
30873;BME280;17579;42.690;2.586;2023-06-22T04:02:24;97055.78;;;22.88;71.33
30873;BME280;17579;42.690;2.586;2023-06-22T04:04:50;97059.53;;;22.87;71.40
30873;BME280;17579;42.690;2.586;2023-06-22T04:07:23;97044.97;;;22.88;71.32
30873;BME280;17579;42.690;2.586;2023-06-22T04:13:11;97045.22;;;22.87;71.02
30873;BME280;17579;42.690;2.586;2023-06-22T04:16:20;97034.91;;;22.83;71.20
30873;BME280;17579;42.690;2.586;2023-06-22T04:22:02;97042.75;;;22.85;70.38
30873;BME280;17579;42.690;2.586;2023-06-22T04:24:46;97055.88;;;22.81;70.27
30873;BME280;17579;42.690;2.586;2023-06-22T04:27:22;97046.13;;;22.80;69.64
30873;BME280;17579;42.690;2.586;2023-06-22T04:29:51;97049.97;;;22.73;68.89
30873;BME280;17579;42.690;2.586;2023-06-22T04:32:21;97065.78;;;22.69;68.24
30873;BME280;17579;42.690;2.586;2023-06-22T04:34:55;97059.41;;;22.63;68.15
30873;BME280;17579;42.690;2.586;2023-06-22T04:37:24;97061.44;;;22.68;67.68
30873;BME280;17579;42.690;2.586;2023-06-22T04:39:50;97053.56;;;22.66;66.94
30873;BME280;17579;42.690;2.586;2023-06-22T04:42:40;97062.28;;;22.69;66.79
30873;BME280;17579;42.690;2.586;2023-06-22T04:45:08;97067.44;;;22.70;66.55
30873;BME280;17579;42.690;2.586;2023-06-22T04:47:37;97070.47;;;22.74;66.32
30873;BME280;17579;42.690;2.586;2023-06-22T04:50:14;97075.06;;;22.73;66.55
30873;BME280;17579;42.690;2.586;2023-06-22T04:52:48;97076.72;;;22.74;65.83
30873;BME280;17579;42.690;2.586;2023-06-22T04:55:26;97071.75;;;22.71;64.94
30873;BME280;17579;42.690;2.586;2023-06-22T04:57:52;97066.97;;;22.73;63.92
30873;BME280;17579;42.690;2.586;2023-06-22T05:00:23;97065.31;;;22.72;63.96
30873;BME280;17579;42.690;2.586;2023-06-22T05:02:57;97066.53;;;22.76;64.04
30873;BME280;17579;42.690;2.586;2023-06-22T05:05:26;97082.47;;;22.78;62.95
30873;BME280;17579;42.690;2.586;2023-06-22T05:08:00;97089.75;;;22.77;63.22
30873;BME280;17579;42.690;2.586;2023-06-22T05:10:26;97086.81;;;22.79;63.02
30873;BME280;17579;42.690;2.586;2023-06-22T05:12:52;97083.03;;;22.80;62.58
30873;BME280;17579;42.690;2.586;2023-06-22T05:15:25;97083.88;;;22.80;62.74
30873;BME280;17579;42.690;2.586;2023-06-22T05:18:03;97088.66;;;22.78;62.51
30873;BME280;17579;42.690;2.586;2023-06-22T05:20:30;97089.75;;;22.77;62.66
30873;BME280;17579;42.690;2.586;2023-06-22T05:22:59;97088.91;;;22.77;62.51
30873;BME280;17579;42.690;2.586;2023-06-22T05:25:35;97083.28;;;22.78;62.33
30873;BME280;17579;42.690;2.586;2023-06-22T05:28:08;97077.88;;;22.78;62.34
30873;BME280;17579;42.690;2.586;2023-06-22T05:30:54;97093.19;;;22.84;62.32
30873;BME280;17579;42.690;2.586;2023-06-22T05:33:22;97082.75;;;22.88;62.27
30873;BME280;17579;42.690;2.586;2023-06-22T05:35:51;97075.91;;;22.86;62.00
30873;BME280;17579;42.690;2.586;2023-06-22T05:38:28;97082.47;;;22.78;62.30
30873;BME280;17579;42.690;2.586;2023-06-22T05:40:54;97081.19;;;22.80;61.97
30873;BME280;17579;42.690;2.586;2023-06-22T05:43:25;97094.69;;;22.80;61.92
30873;BME280;17579;42.690;2.586;2023-06-22T05:46:10;97096.97;;;22.77;62.05
30873;BME280;17579;42.690;2.586;2023-06-22T05:48:56;97097.84;;;22.77;62.38
30873;BME280;17579;42.690;2.586;2023-06-22T05:53:02;97093.84;;;22.80;62.04
30873;BME280;17579;42.690;2.586;2023-06-22T05:54:22;97105.91;;;22.77;62.14
30873;BME280;17579;42.690;2.586;2023-06-22T05:56:50;97110.34;;;22.72;62.47
30873;BME280;17579;42.690;2.586;2023-06-22T05:59:44;97123.06;;;22.64;62.46
30873;BME280;17579;42.690;2.586;2023-06-22T06:02:18;97125.09;;;22.69;62.28
30873;BME280;17579;42.690;2.586;2023-06-22T06:04:47;97122.22;;;22.64;62.00
30873;BME280;17579;42.690;2.586;2023-06-22T06:07:18;97132.22;;;22.63;62.12
30873;BME280;17579;42.690;2.586;2023-06-22T06:09:43;97140.06;;;22.65;61.89
30873;BME280;17579;42.690;2.586;2023-06-22T06:12:32;97143.81;;;22.64;61.62
30873;BME280;17579;42.690;2.586;2023-06-22T06:15:19;97150.09;;;22.58;61.78
30873;BME280;17579;42.690;2.586;2023-06-22T06:17:53;97152.56;;;22.59;61.63
30873;BME280;17579;42.690;2.586;2023-06-22T06:20:21;97154.22;;;22.60;61.11
30873;BME280;17579;42.690;2.586;2023-06-22T06:22:50;97152.97;;;22.63;61.32
30873;BME280;17579;42.690;2.586;2023-06-22T06:25:19;97153.25;;;22.73;61.30
30873;BME280;17579;42.690;2.586;2023-06-22T06:27:57;97152.31;;;23.16;60.69
30873;BME280;17579;42.690;2.586;2023-06-22T06:33:51;97157.44;;;23.79;59.06
30873;BME280;17579;42.690;2.586;2023-06-22T06:36:23;97162.56;;;24.11;58.27
30873;BME280;17579;42.690;2.586;2023-06-22T06:39:01;97155.97;;;24.54;57.33
30873;BME280;17579;42.690;2.586;2023-06-22T06:41:37;97153.31;;;24.95;56.34
30873;BME280;17579;42.690;2.586;2023-06-22T06:44:29;97143.72;;;25.16;56.61
30873;BME280;17579;42.690;2.586;2023-06-22T06:47:03;97137.97;;;25.41;54.51
30873;BME280;17579;42.690;2.586;2023-06-22T06:49:33;97143.16;;;25.59;53.43
30873;BME280;17579;42.690;2.586;2023-06-22T06:52:04;97150.72;;;25.74;53.34
30873;BME280;17579;42.690;2.586;2023-06-22T06:54:40;97142.19;;;26.00;52.86
30873;BME280;17579;42.690;2.586;2023-06-22T06:57:08;97143.88;;;26.18;51.45
30873;BME280;17579;42.690;2.586;2023-06-22T06:59:42;97139.50;;;26.34;50.71
30873;BME280;17579;42.690;2.586;2023-06-22T07:02:10;97146.50;;;26.52;50.39
30873;BME280;17579;42.690;2.586;2023-06-22T07:05:12;97147.63;;;26.73;50.45
30873;BME280;17579;42.690;2.586;2023-06-22T07:10:52;97138.63;;;26.50;49.77
30873;BME280;17579;42.690;2.586;2023-06-22T07:13:31;97146.50;;;26.69;49.29
30873;BME280;17579;42.690;2.586;2023-06-22T07:16:37;97149.22;;;26.69;50.20
30873;BME280;17579;42.690;2.586;2023-06-22T07:19:24;97144.91;;;26.95;48.85
30873;BME280;17579;42.690;2.586;2023-06-22T07:21:55;97150.38;;;27.22;47.91
30873;BME280;17579;42.690;2.586;2023-06-22T07:24:21;97146.78;;;27.39;47.06
30873;BME280;17579;42.690;2.586;2023-06-22T07:26:50;97146.06;;;27.48;47.19
30873;BME280;17579;42.690;2.586;2023-06-22T07:29:26;97155.09;;;27.54;46.46
30873;BME280;17579;42.690;2.586;2023-06-22T07:34:30;97155.25;;;26.76;47.19
30873;BME280;17579;42.690;2.586;2023-06-22T07:37:00;97175.94;;;27.26;47.84
30873;BME280;17579;42.690;2.586;2023-06-22T07:39:49;97172.25;;;27.87;46.15
30873;BME280;17579;42.690;2.586;2023-06-22T07:42:26;97174.66;;;27.83;45.68
30873;BME280;17579;42.690;2.586;2023-06-22T07:44:52;97171.72;;;27.90;45.43
30873;BME280;17579;42.690;2.586;2023-06-22T07:47:21;97161.69;;;27.63;45.31
30873;BME280;17579;42.690;2.586;2023-06-22T07:49:58;97151.72;;;27.42;45.08
30873;BME280;17579;42.690;2.586;2023-06-22T07:52:36;97143.56;;;27.42;46.00
30873;BME280;17579;42.690;2.586;2023-06-22T07:55:13;97152.47;;;27.97;44.95
30873;BME280;17579;42.690;2.586;2023-06-22T07:57:44;97169.75;;;27.86;44.77
30873;BME280;17579;42.690;2.586;2023-06-22T08:00:22;97184.13;;;27.54;45.57
30873;BME280;17579;42.690;2.586;2023-06-22T08:03:29;97181.97;;;27.06;46.80
30873;BME280;17579;42.690;2.586;2023-06-22T08:05:55;97169.34;;;26.95;46.05
30873;BME280;17579;42.690;2.586;2023-06-22T08:08:21;97156.69;;;26.61;46.60
30873;BME280;17579;42.690;2.586;2023-06-22T08:10:54;97174.84;;;26.78;47.26
30873;BME280;17579;42.690;2.586;2023-06-22T08:13:30;97178.88;;;26.58;47.64
30873;BME280;17579;42.690;2.586;2023-06-22T08:16:13;97171.56;;;26.59;48.78
30873;BME280;17579;42.690;2.586;2023-06-22T08:19:07;97164.75;;;26.95;48.88
30873;BME280;17579;42.690;2.586;2023-06-22T08:27:07;97184.16;;;27.09;47.12
30873;BME280;17579;42.690;2.586;2023-06-22T08:29:39;97182.84;;;26.90;47.71
30873;BME280;17579;42.690;2.586;2023-06-22T08:32:24;97175.91;;;26.60;48.50
30873;BME280;17579;42.690;2.586;2023-06-22T08:37:46;97173.81;;;27.28;47.96
30873;BME280;17579;42.690;2.586;2023-06-22T08:40:22;97176.56;;;27.83;48.02
30873;BME280;17579;42.690;2.586;2023-06-22T08:43:00;97170.22;;;28.42;45.86
30873;BME280;17579;42.690;2.586;2023-06-22T08:45:26;97174.81;;;28.79;45.00
30873;BME280;17579;42.690;2.586;2023-06-22T08:48:05;97177.81;;;28.78;44.42
30873;BME280;17579;42.690;2.586;2023-06-22T08:50:39;97189.72;;;28.29;44.60
30873;BME280;17579;42.690;2.586;2023-06-22T08:53:30;97191.38;;;27.70;45.28
30873;BME280;17579;42.690;2.586;2023-06-22T08:56:13;97211.31;;;27.09;45.55
30873;BME280;17579;42.690;2.586;2023-06-22T08:58:44;97211.50;;;26.63;46.53
30873;BME280;17579;42.690;2.586;2023-06-22T09:01:10;97204.22;;;26.30;48.10
30873;BME280;17579;42.690;2.586;2023-06-22T09:03:38;97216.81;;;26.02;49.46
30873;BME280;17579;42.690;2.586;2023-06-22T09:06:14;97211.22;;;25.80;50.86
30873;BME280;17579;42.690;2.586;2023-06-22T09:08:48;97219.00;;;25.59;51.90
30873;BME280;17579;42.690;2.586;2023-06-22T09:11:36;97227.69;;;25.33;51.47
30873;BME280;17579;42.690;2.586;2023-06-22T09:14:11;97231.50;;;25.20;52.52
30873;BME280;17579;42.690;2.586;2023-06-22T09:16:40;97233.72;;;25.11;52.64
30873;BME280;17579;42.690;2.586;2023-06-22T09:19:11;97237.31;;;25.00;52.37
30873;BME280;17579;42.690;2.586;2023-06-22T09:21:57;97235.78;;;24.92;52.04
30873;BME280;17579;42.690;2.586;2023-06-22T09:24:34;97247.88;;;24.89;52.62
30873;BME280;17579;42.690;2.586;2023-06-22T09:27:05;97244.72;;;24.93;52.46
30873;BME280;17579;42.690;2.586;2023-06-22T09:29:45;97245.41;;;24.88;52.08
30873;BME280;17579;42.690;2.586;2023-06-22T09:32:13;97240.72;;;24.83;52.22
30873;BME280;17579;42.690;2.586;2023-06-22T09:34:42;97239.44;;;24.86;52.18
30873;BME280;17579;42.690;2.586;2023-06-22T09:37:11;97245.31;;;24.95;52.17
30873;BME280;17579;42.690;2.586;2023-06-22T09:39:42;97248.56;;;25.08;52.36
30873;BME280;17579;42.690;2.586;2023-06-22T09:42:10;97242.22;;;25.15;51.91
30873;BME280;17579;42.690;2.586;2023-06-22T09:44:42;97240.66;;;25.19;51.63
30873;BME280;17579;42.690;2.586;2023-06-22T09:47:35;97233.13;;;25.21;51.38
30873;BME280;17579;42.690;2.586;2023-06-22T09:50:06;97229.13;;;25.23;51.36
30873;BME280;17579;42.690;2.586;2023-06-22T09:52:55;97250.19;;;25.33;51.12
30873;BME280;17579;42.690;2.586;2023-06-22T09:55:47;97245.22;;;25.42;50.36
30873;BME280;17579;42.690;2.586;2023-06-22T09:58:20;97247.44;;;25.45;49.88
30873;BME280;17579;42.690;2.586;2023-06-22T10:00:54;97239.81;;;25.42;49.23
30873;BME280;17579;42.690;2.586;2023-06-22T10:03:30;97244.28;;;25.36;49.55
30873;BME280;17579;42.690;2.586;2023-06-22T10:05:57;97251.00;;;25.34;49.48
30873;BME280;17579;42.690;2.586;2023-06-22T10:08:45;97247.31;;;25.40;49.68
30873;BME280;17579;42.690;2.586;2023-06-22T10:11:21;97255.03;;;25.60;49.52
30873;BME280;17579;42.690;2.586;2023-06-22T10:13:57;97251.59;;;25.93;49.82
30873;BME280;17579;42.690;2.586;2023-06-22T10:16:46;97252.28;;;26.01;47.54
30873;BME280;17579;42.690;2.586;2023-06-22T10:19:30;97270.94;;;25.85;48.44
30873;BME280;17579;42.690;2.586;2023-06-22T10:22:05;97273.53;;;25.80;48.37
30873;BME280;17579;42.690;2.586;2023-06-22T10:24:41;97270.84;;;25.80;48.44
30873;BME280;17579;42.690;2.586;2023-06-22T10:27:15;97278.41;;;25.78;48.40
30873;BME280;17579;42.690;2.586;2023-06-22T10:29:49;97281.22;;;25.83;47.95
30873;BME280;17579;42.690;2.586;2023-06-22T10:32:34;97283.44;;;25.86;48.22
30873;BME280;17579;42.690;2.586;2023-06-22T10:35:05;97281.28;;;25.88;48.56
30873;BME280;17579;42.690;2.586;2023-06-22T10:40:43;97292.97;;;25.89;48.43
30873;BME280;17579;42.690;2.586;2023-06-22T10:43:29;97297.78;;;25.87;48.07
30873;BME280;17579;42.690;2.586;2023-06-22T10:45:58;97291.25;;;25.71;48.22
30873;BME280;17579;42.690;2.586;2023-06-22T10:48:31;97296.69;;;25.71;49.00
30873;BME280;17579;42.690;2.586;2023-06-22T10:51:20;97294.78;;;25.71;49.22
30873;BME280;17579;42.690;2.586;2023-06-22T10:53:48;97292.75;;;25.79;49.09
30873;BME280;17579;42.690;2.586;2023-06-22T10:56:19;97290.34;;;25.94;49.12
30873;BME280;17579;42.690;2.586;2023-06-22T10:58:50;97290.53;;;26.04;48.75
30873;BME280;17579;42.690;2.586;2023-06-22T11:01:22;97282.69;;;26.20;48.62
30873;BME280;17579;42.690;2.586;2023-06-22T11:04:06;97296.59;;;26.23;48.75
30873;BME280;17579;42.690;2.586;2023-06-22T11:07:03;97289.84;;;26.26;48.53
30873;BME280;17579;42.690;2.586;2023-06-22T11:09:28;97287.88;;;26.38;48.22
30873;BME280;17579;42.690;2.586;2023-06-22T11:11:55;97281.38;;;26.56;47.83
30873;BME280;17579;42.690;2.586;2023-06-22T11:14:38;97287.22;;;26.82;47.60
30873;BME280;17579;42.690;2.586;2023-06-22T11:20:26;97274.59;;;27.10;46.50
30873;BME280;17579;42.690;2.586;2023-06-22T11:22:52;97288.47;;;27.13;45.58
30873;BME280;17579;42.690;2.586;2023-06-22T11:25:35;97299.44;;;27.02;46.18
30873;BME280;17579;42.690;2.586;2023-06-22T11:28:11;97289.34;;;26.97;45.08
30873;BME280;17579;42.690;2.586;2023-06-22T11:30:51;97294.97;;;26.73;46.04
30873;BME280;17579;42.690;2.586;2023-06-22T11:33:37;97302.03;;;26.74;45.62
30873;BME280;17579;42.690;2.586;2023-06-22T11:36:21;97310.41;;;26.90;46.05
30873;BME280;17579;42.690;2.586;2023-06-22T11:39:10;97310.53;;;27.17;46.10
30873;BME280;17579;42.690;2.586;2023-06-22T11:41:47;97302.75;;;27.43;45.25
30873;BME280;17579;42.690;2.586;2023-06-22T11:44:21;97313.28;;;27.39;45.25
30873;BME280;17579;42.690;2.586;2023-06-22T11:47:05;97327.75;;;27.45;45.30
30873;BME280;17579;42.690;2.586;2023-06-22T11:49:53;97333.50;;;27.48;44.61
30873;BME280;17579;42.690;2.586;2023-06-22T11:52:28;97314.75;;;27.47;44.55
30873;BME280;17579;42.690;2.586;2023-06-22T11:55:28;97324.97;;;27.40;44.80
30873;BME280;17579;42.690;2.586;2023-06-22T11:57:56;97309.50;;;27.40;44.45
30873;BME280;17579;42.690;2.586;2023-06-22T12:00:44;97326.88;;;27.22;44.70
30873;BME280;17579;42.690;2.586;2023-06-22T12:03:15;97303.94;;;27.13;43.66
30873;BME280;17579;42.690;2.586;2023-06-22T12:08:54;97317.00;;;26.94;44.70
30873;BME280;17579;42.690;2.586;2023-06-22T12:11:30;97320.50;;;26.94;44.06
30873;BME280;17579;42.690;2.586;2023-06-22T12:13:56;97324.13;;;26.83;44.01
30873;BME280;17579;42.690;2.586;2023-06-22T12:16:32;97325.31;;;26.70;44.37
30873;BME280;17579;42.690;2.586;2023-06-22T12:19:12;97327.81;;;26.60;44.81
30873;BME280;17579;42.690;2.586;2023-06-22T12:21:40;97327.41;;;26.51;44.87
30873;BME280;17579;42.690;2.586;2023-06-22T12:24:31;97309.56;;;26.38;44.99
30873;BME280;17579;42.690;2.586;2023-06-22T12:29:54;97319.00;;;26.36;44.65
30873;BME280;17579;42.690;2.586;2023-06-22T12:32:47;97324.38;;;26.31;45.18
30873;BME280;17579;42.690;2.586;2023-06-22T12:35:16;97331.03;;;26.40;45.22
30873;BME280;17579;42.690;2.586;2023-06-22T12:37:51;97325.44;;;26.47;45.19
30873;BME280;17579;42.690;2.586;2023-06-22T12:40:28;97315.81;;;26.56;44.90
30873;BME280;17579;42.690;2.586;2023-06-22T12:42:54;97319.47;;;26.78;44.38
30873;BME280;17579;42.690;2.586;2023-06-22T12:45:24;97316.59;;;27.24;44.28
30873;BME280;17579;42.690;2.586;2023-06-22T12:48:04;97328.94;;;27.98;43.45
30873;BME280;17579;42.690;2.586;2023-06-22T12:50:38;97311.59;;;28.64;42.18
30873;BME280;17579;42.690;2.586;2023-06-22T12:53:14;97330.00;;;28.52;40.69
30873;BME280;17579;42.690;2.586;2023-06-22T12:55:43;97323.81;;;28.29;40.42
30873;BME280;17579;42.690;2.586;2023-06-22T12:58:11;97336.13;;;28.10;41.18
30873;BME280;17579;42.690;2.586;2023-06-22T13:00:40;97342.19;;;27.95;41.59
30873;BME280;17579;42.690;2.586;2023-06-22T13:03:26;97340.97;;;27.86;42.20
30873;BME280;17579;42.690;2.586;2023-06-22T13:06:35;97340.28;;;27.95;41.55
30873;BME280;17579;42.690;2.586;2023-06-22T13:09:11;97349.09;;;27.80;41.95
30873;BME280;17579;42.690;2.586;2023-06-22T13:11:42;97355.78;;;27.73;41.57
30873;BME280;17579;42.690;2.586;2023-06-22T13:14:13;97370.09;;;27.63;41.61
30873;BME280;17579;42.690;2.586;2023-06-22T13:16:41;97360.41;;;27.72;41.38
30873;BME280;17579;42.690;2.586;2023-06-22T13:19:10;97355.84;;;27.78;41.34
30873;BME280;17579;42.690;2.586;2023-06-22T13:21:38;97360.22;;;27.79;41.49
30873;BME280;17579;42.690;2.586;2023-06-22T13:24:17;97355.84;;;27.78;41.29
30873;BME280;17579;42.690;2.586;2023-06-22T13:27:02;97353.91;;;27.73;41.49
30873;BME280;17579;42.690;2.586;2023-06-22T13:29:37;97353.47;;;27.81;40.69
30873;BME280;17579;42.690;2.586;2023-06-22T13:32:26;97352.69;;;27.64;41.79
30873;BME280;17579;42.690;2.586;2023-06-22T13:34:55;97354.03;;;27.61;40.94
30873;BME280;17579;42.690;2.586;2023-06-22T13:37:21;97367.47;;;27.51;41.66
30873;BME280;17579;42.690;2.586;2023-06-22T13:39:49;97367.69;;;27.44;41.49
30873;BME280;17579;42.690;2.586;2023-06-22T13:42:38;97371.72;;;27.25;41.77
30873;BME280;17579;42.690;2.586;2023-06-22T13:45:26;97368.19;;;27.24;41.44
30873;BME280;17579;42.690;2.586;2023-06-22T13:47:55;97372.22;;;27.22;41.42
30873;BME280;17579;42.690;2.586;2023-06-22T13:50:30;97360.59;;;27.43;41.95
30873;BME280;17579;42.690;2.586;2023-06-22T13:53:20;97380.06;;;27.57;42.20
30873;BME280;17579;42.690;2.586;2023-06-22T13:55:52;97366.34;;;27.69;41.00
30873;BME280;17579;42.690;2.586;2023-06-22T13:58:29;97372.47;;;27.59;41.28
30873;BME280;17579;42.690;2.586;2023-06-22T14:01:02;97381.22;;;27.61;41.34
30873;BME280;17579;42.690;2.586;2023-06-22T14:03:55;97383.69;;;27.63;41.81
30873;BME280;17579;42.690;2.586;2023-06-22T14:06:44;97384.16;;;27.82;41.70
30873;BME280;17579;42.690;2.586;2023-06-22T14:09:39;97398.31;;;27.84;41.83
30873;BME280;17579;42.690;2.586;2023-06-22T14:12:06;97404.38;;;27.91;41.57
30873;BME280;17579;42.690;2.586;2023-06-22T14:14:35;97403.31;;;27.92;41.24
30873;BME280;17579;42.690;2.586;2023-06-22T14:17:23;97410.59;;;27.87;41.34
30873;BME280;17579;42.690;2.586;2023-06-22T14:19:52;97409.34;;;27.94;40.95
30873;BME280;17579;42.690;2.586;2023-06-22T14:22:21;97407.19;;;27.96;40.88
30873;BME280;17579;42.690;2.586;2023-06-22T14:24:54;97409.09;;;27.96;40.46
30873;BME280;17579;42.690;2.586;2023-06-22T14:27:34;97403.16;;;27.99;40.15
30873;BME280;17579;42.690;2.586;2023-06-22T14:33:23;97424.84;;;28.16;40.72
30873;BME280;17579;42.690;2.586;2023-06-22T14:36:00;97428.69;;;28.47;40.36
30873;BME280;17579;42.690;2.586;2023-06-22T14:38:47;97414.94;;;28.86;40.40